Tuesday, January 16, 2018, 12:11 PM EST
Back to Local

KSYR, Syracuse Hancock International Airport

Location: Syracuse, NY, United States Lat: 43.117
Local Time: 12:11 PM EST (17:11 GMT) Lon: -76.1
Time Zone: US/Eastern Elev: 410 ft

Show me the last for .
Show Decoded

2018-01-16 11:54 METAR KSYR 161654Z 00000KT 10SM BKN027 BKN035 OVC050 M04/M06 A3039 RMK AO2
                 SNE1559 SLP295 P0000 T10441061 =
2018-01-16 11:03 METAR KSYR 161603Z 00000KT 9SM BKN028 OVC055 M06/M07 A3040 RMK AO2 SNE1559 P0000
                 T10611072 =
2018-01-16 10:54 METAR KSYR 161554Z 00000KT 9SM -SN SCT028 BKN035 OVC055 M07/M07 A3041 RMK AO2
                 SLP301 PCPN VERY LIGHT P0000 T10671072 =
2018-01-16 09:54 METAR KSYR 161454Z 00000KT 5SM -SN BR FEW034 SCT050 BKN070 M08/M08 A3041 RMK AO2
                 SLP300 P0000 60000 T10781083 53006 =
2018-01-16 08:54 METAR KSYR 161354Z 09004KT 7SM -SN OVC030 M08/M09 A3040 RMK AO2 SLP299 PCPN VERY
                 LIGHT P0000 T10831089 =
2018-01-16 08:06 METAR KSYR 161306Z 09003KT 8SM -SN OVC030 M08/M09 A3039 =
2018-01-16 07:54 METAR KSYR 161254Z 08005KT 6SM -SN BR BKN028 OVC032 M08/M09 A3038 RMK AO2 SLP294
                 P0000 T10831089 =
2018-01-16 06:54 METAR KSYR 161154Z 09004KT 9SM -SN OVC029 M09/M09 A3039 RMK AO2 SLP295 4/008
                 P0000 60003 70009 T10891089 11083 21089 53008 $ =
2018-01-16 05:59 METAR KSYR 161059Z 08003KT 4SM -SN BR OVC029 M09/M09 A3037 RMK AO2 P0000
                 T10891089 =
2018-01-16 05:54 METAR KSYR 161054Z 08003KT 2 1/2SM -SN BR OVC031 M09/M09 A3037 RMK AO2 SLP289
                 VIS 2 1/2 V 3 P0000 T10891089 =
2018-01-16 05:28 METAR KSYR 161028Z 06004KT 2 1/2SM -SN BR OVC031 M09/M09 A3037 RMK AO2 VIS 2 1/2
                 V 3 P0000 T10891094 =
2018-01-16 04:54 METAR KSYR 160954Z 06004KT 4SM -SN BR OVC040 M09/M09 A3036 RMK AO2 SLP286 P0000
                 T10891094 =
2018-01-16 03:54 METAR KSYR 160854Z 08004KT 4SM -SN BR OVC036 M09/M09 A3036 RMK AO2 SLP287 P0001
                 60003 T10891089 56001 =
2018-01-16 03:33 METAR KSYR 160833Z 08006KT 3SM -SN BR OVC032 M09/M09 A3037 RMK AO2 P0000
                 T10891089 =
2018-01-16 02:54 METAR KSYR 160754Z 07004KT 2SM -SN BR OVC027 M08/M09 A3037 RMK AO2 SLP288 P0001
                 T10831089 =
2018-01-16 02:31 METAR KSYR 160731Z 08006KT 1 3/4SM -SN BR OVC028 M08/M09 A3036 RMK AO2 P0001
                 T10831089 =
2018-01-16 02:21 METAR KSYR 160721Z 07006KT 2SM -SN BR OVC030 M08/M09 A3036 =
2018-01-16 01:54 METAR KSYR 160654Z 08005KT 1 3/4SM -SN BR OVC025 M08/M09 A3036 RMK AO2 SLP286
                 P0001 T10831089 =
2018-01-16 01:47 METAR KSYR 160647Z 07005KT 1 3/4SM -SN BR OVC026 M08/M09 A3036 RMK AO2 P0001
                 T10831089 =
2018-01-16 00:54 METAR KSYR 160554Z 08006KT 2SM -SN BR OVC028 M09/M09 A3037 RMK AO2 SLP289 4/008
                 P0002 60006 T10891094 11083 21089 58018 =
2018-01-16 00:42 METAR KSYR 160542Z 07006KT 1 3/4SM -SN BR OVC023 M09/M09 A3038 RMK AO2 P0001
                 T10891094 =
2018-01-15 23:54 METAR KSYR 160454Z 09007KT 1SM R28/P6000FT -SN BR VV015 M09/M09 A3039 RMK AO2
                 SLP297 P0003 T10891089 410831211 =
2018-01-15 23:23 METAR KSYR 160423Z 09007KT 1 1/2SM -SN BR OVC020 M09/M09 A3040 RMK AO2 P0001
                 T10891094 =
2018-01-15 22:57 METAR KSYR 160357Z 08008KT 2SM -SN BR OVC022 M08/M09 A3041 =
2018-01-15 22:54 METAR KSYR 160354Z 09007KT 3SM -SN BR OVC023 M08/M09 A3041 RMK AO2 SLP304 P0000
                 T10831094 =
2018-01-15 22:01 METAR KSYR 160301Z 09008KT 3SM -SN BR OVC027 M08/M10 A3042 RMK AO2 P0000
                 T10831100 =
2018-01-15 21:54 METAR KSYR 160254Z 09007KT 3SM -SN BR OVC032 M08/M10 A3042 RMK AO2 SLP308 P0001
                 60001 T10831100 55015 =
2018-01-15 20:54 METAR KSYR 160154Z 08010KT 5SM -SN OVC034 M08/M11 A3042 RMK AO2 SNB33 SLP307
                 P0000 T10831111 =
2018-01-15 19:54 METAR KSYR 160054Z 08009KT 10SM OVC080 M09/M12 A3045 RMK AO2 SLP318 T10891117 =
2018-01-15 18:54 METAR KSYR 152354Z 08009KT 10SM BKN031 OVC080 M09/M12 A3047 RMK AO2 SLP324 4/007
                 T10891122 11089 21100 56009 =
2018-01-15 17:54 METAR KSYR 152254Z 08012KT 10SM OVC065 M09/M12 A3047 RMK AO2 SLP325 T10891122 =
2018-01-15 16:54 METAR KSYR 152154Z 09013KT 10SM BKN033 OVC100 M09/M12 A3048 RMK AO2 SLP328
                 T10941122 =
2018-01-15 15:54 METAR KSYR 152054Z 09012KT 10SM BKN037 OVC140 M09/M13 A3049 RMK AO2 SLP334
                 T10891128 56019 =
2018-01-15 14:54 METAR KSYR 151954Z 08012KT 10SM SCT037 OVC140 M09/M13 A3050 RMK AO2 SLP336
                 T10941128 =
2018-01-15 13:54 METAR KSYR 151854Z 09012KT 10SM OVC035 M09/M13 A3051 RMK AO2 SLP338 T10891128 =
2018-01-15 12:54 METAR KSYR 151754Z 08009KT 10SM BKN035 BKN150 M10/M14 A3055 RMK AO2 SLP353 4/008
                 933012 T11001139 11100 21206 58034 =

Support USWX by starting your Amazon purchase here.